• Avenue

  • 1050 - 1060 Brickell Avenue, Miami, FL

  • BRICKELL

  • 2007

  • 605

  • 34 - 46

  • Studio - 2

  • 601 SF to 2,525 SF

  • $250,000.00 to $1,750,000.00

  • $405

  • 123 day(s)

  • Property Details

  • The Avenue is a one-of-a-kind luxury home experience. The building features Valet Parking, State-of-the-art fitness center with steam rooms and saunas, virtual golf room with an indoor golf simulator, wine and cigar lounge with temperature-controlled wine storage cabinets and personal cigar humidors, game room with pool table, lounge and party room with catering kitchen, resort-like pool, whirlpool and sundeck, and an elegant double-height lobby featuring Champ’s Preschool, Roberto Giodano Salon and Spa, Café Sci Sci, Sagoi, La Provence Bakery, Yogurbella, and Arthur Murray Dance Studio. The sizes of the 605 residential units include lofts, and one, two, and three bedroom apartments, and range from 570 square foot studios to spacious 2,500 square foot duplex penthouses.

    • Fitness center with steam rooms and saunas
    • Wine and Cigar Lounge
    • Game room
    • Party Room with catering kitchen
    • Café
    • Valet Parking
    • Pool and Sundeck

     

  • Available Listings

    For sale For rent
  • Unit # List Price List SQ / FT Beds/Baths Sq.FT Date Details
    3322 $260,000.00 $430.46 0 / 1 / 0 604 Sq.Ft. 08/16/2017 Details
    2811 $435,000.00 $399.82 2 / 2 / 0 1,088 Sq.Ft. 08/14/2017 Details
    3911 $430,000.00 $395.22 2 / 2 / 0 1,088 Sq.Ft. 08/14/2017 Details
    3505 $350,000.00 $ 0.00 1 / 1 / 1 n/a 08/14/2017 Details
    4407 $975,000.00 $522.23 3 / 3 / 0 1,867 Sq.Ft. 08/10/2017 Details
    3517 $529,000.00 $386.70 2 / 2 / 1 1,368 Sq.Ft. 08/10/2017 Details
    2022 $255,000.00 $422.19 0 / 1 / 0 604 Sq.Ft. 08/09/2017 Details
    1010 $359,000.00 $359.00 1 / 2 / 0 1,000 Sq.Ft. 08/07/2017 Details
    1811 $450,000.00 $413.60 2 / 2 / 0 1,088 Sq.Ft. 08/01/2017 Details
    1003 $529,000.00 $367.36 2 / 2 / 0 1,440 Sq.Ft. 08/01/2017 Details
    3006 $250,000.00 $407.83 0 / 1 / 0 613 Sq.Ft. 08/01/2017 Details
    1411 $398,000.00 $365.81 2 / 2 / 0 1,088 Sq.Ft. 07/31/2017 Details
    1922 $251,000.00 $415.56 0 / 1 / 0 604 Sq.Ft. 07/29/2017 Details
    3111 $425,000.00 $390.63 2 / 2 / 0 1,088 Sq.Ft. 07/28/2017 Details
    1622 $265,000.00 $438.74 0 / 1 / 0 604 Sq.Ft. 07/28/2017 Details
    1912 $265,000.00 $440.93 0 / 1 / 0 601 Sq.Ft. 07/27/2017 Details
    2104 $309,998.00 $424.07 1 / 1 / 0 731 Sq.Ft. 07/26/2017 Details
    1403 $349,900.00 $376.64 1 / 1 / 0 929 Sq.Ft. 07/26/2017 Details
    222 $399,000.00 $335.58 1 / 1 / 1 1,189 Sq.Ft. 07/25/2017 Details
    1616 $329,000.00 $291.67 1 / 1 / 1 1,128 Sq.Ft. 07/25/2017 Details
    3401 $549,999.00 $402.05 2 / 2 / 1 1,368 Sq.Ft. 07/21/2017 Details
    1720 $439,888.00 $341.53 2 / 2 / 1 1,288 Sq.Ft. 07/21/2017 Details
    3707 $460,000.00 $422.79 2 / 2 / 0 1,088 Sq.Ft. 07/21/2017 Details
    3803 $390,000.00 $404.98 1 / 1 / 1 963 Sq.Ft. 07/20/2017 Details
    2805 $430,000.00 $446.52 1 / 1 / 1 963 Sq.Ft. 07/20/2017 Details
    4101 $595,000.00 $434.94 2 / 2 / 1 1,368 Sq.Ft. 07/20/2017 Details
    3913 $299,900.00 $317.35 1 / 1 / 0 945 Sq.Ft. 07/13/2017 Details
    409 $310,000.00 $315.68 1 / 1 / 1 982 Sq.Ft. 07/13/2017 Details
    2603 $375,000.00 $389.41 1 / 1 / 1 963 Sq.Ft. 07/13/2017 Details
    1820 $525,000.00 $414.04 2 / 2 / 1 1,268 Sq.Ft. 07/10/2017 Details
    1407 $430,000.00 $395.22 2 / 2 / 0 1,088 Sq.Ft. 07/06/2017 Details
    3207 $459,900.00 $422.70 2 / 2 / 0 1,088 Sq.Ft. 07/03/2017 Details
    611 $389,000.00 $339.15 1 / 2 / 0 1,147 Sq.Ft. 07/03/2017 Details
    3811 $450,000.00 $413.60 2 / 2 / 0 1,088 Sq.Ft. 07/02/2017 Details
    3917 $565,000.00 $413.01 2 / 2 / 1 1,368 Sq.Ft. 07/02/2017 Details
    2320 $448,900.00 $ 0.00 2 / 2 / 0 n/a 06/28/2017 Details
    2520 * $464,900.00 $360.95 2 / 2 / 1 1,288 Sq.Ft. 06/23/2017 Details
    2820 $440,000.00 $347.00 2 / 2 / 1 1,268 Sq.Ft. 06/22/2017 Details
    612 $335,000.00 $335.00 1 / 2 / 0 1,000 Sq.Ft. 06/22/2017 Details
    1209 $330,000.00 $303.31 1 / 1 / 0 1,088 Sq.Ft. 06/19/2017 Details
    814 $400,000.00 $400.00 1 / 2 / 0 1,000 Sq.Ft. 06/07/2017 Details
    815 $394,000.00 $374.17 1 / 1 / 1 1,053 Sq.Ft. 06/07/2017 Details
    2217 $485,000.00 $354.53 2 / 2 / 1 1,368 Sq.Ft. 05/31/2017 Details
    3211 $485,000.00 $445.77 2 / 2 / 0 1,088 Sq.Ft. 05/24/2017 Details
    3503 $359,000.00 $372.79 1 / 1 / 1 963 Sq.Ft. 05/05/2017 Details
    2405 $345,000.00 $358.26 1 / 1 / 1 963 Sq.Ft. 05/03/2017 Details
    1702 $360,000.00 $427.05 1 / 1 / 0 843 Sq.Ft. 05/02/2017 Details
    218 $379,000.00 $389.92 1 / 1 / 1 972 Sq.Ft. 02/20/2017 Details
    4209 $899,999.00 $452.94 2 / 3 / 0 1,987 Sq.Ft. 01/20/2017 Details
    4503 $1,750,000.00 $693.07 3 / 3 / 1 2,525 Sq.Ft. 01/12/2017 Details
    415 $395,000.00 $375.12 1 / 1 / 1 1,053 Sq.Ft. 12/24/2016 Details
  • Recently Sold

    Unit # List Price List SQ / FT Beds/Baths Sq.FT Sold Date Details
    2505 $347,000.00 $360.33 1 / 1 / 1 963 Sq.Ft. 08/10/2017 Details
    2314 $456,000.00 $356.81 2 / 2 / 1 1,278 Sq.Ft. 08/10/2017 Details
    2012 $222,000.00 $369.38 0 / 1 / 0 601 Sq.Ft. 06/23/2017 Details
    3018 $275,250.00 $244.02 1 / 1 / 1 1,128 Sq.Ft. 06/12/2017 Details
    2616 $275,250.00 $244.02 1 / 1 / 1 1,128 Sq.Ft. 06/12/2017 Details
    2206 $240,000.00 $391.52 0 / 1 / 0 613 Sq.Ft. 06/09/2017 Details
    403 $440,000.00 $305.56 2 / 2 / 0 1,440 Sq.Ft. 06/06/2017 Details
    3611 $393,000.00 $361.21 2 / 2 / 0 1,088 Sq.Ft. 06/01/2017 Details
    2410 $315,000.00 $373.67 1 / 1 / 0 843 Sq.Ft. 05/24/2017 Details
    1703 $325,000.00 $337.49 1 / 1 / 1 963 Sq.Ft. 05/24/2017 Details
    2711 $375,000.00 $344.67 2 / 2 / 0 1,088 Sq.Ft. 05/08/2017 Details
    2911 $388,000.00 $356.62 2 / 2 / 0 1,088 Sq.Ft. 04/28/2017 Details
    3605 $325,000.00 $337.49 1 / 1 / 1 963 Sq.Ft. 04/14/2017 Details
    3905 $326,500.00 $339.04 1 / 1 / 1 963 Sq.Ft. 04/05/2017 Details
    1815 $285,000.00 $301.59 1 / 1 / 0 945 Sq.Ft. 03/10/2017 Details
    2408 $267,500.00 $365.94 1 / 1 / 0 731 Sq.Ft. 03/07/2017 Details
    2402 $300,000.00 $355.87 1 / 1 / 0 843 Sq.Ft. 03/03/2017 Details
    3609 $250,000.00 $453.72 0 / 1 / 0 551 Sq.Ft. 02/17/2017 Details
    807 $270,000.00 $274.95 1 / 1 / 0 982 Sq.Ft. 02/13/2017 Details
    2617 $512,500.00 $374.63 2 / 2 / 1 1,368 Sq.Ft. 01/27/2017 Details
    3303 $318,000.00 $330.22 1 / 1 / 1 963 Sq.Ft. 01/05/2017 Details
    4109 $245,000.00 $444.65 0 / 1 / 0 551 Sq.Ft. 11/30/2016 Details
    2106 $255,000.00 $415.99 0 / 1 / 0 613 Sq.Ft. 10/31/2016 Details
    1007 $310,000.00 $315.68 1 / 1 / 1 982 Sq.Ft. 10/21/2016 Details
    810 $275,000.00 $275.00 1 / 2 / 0 1,000 Sq.Ft. 10/03/2016 Details
    2303 $305,000.00 $316.72 1 / 1 / 1 963 Sq.Ft. 09/23/2016 Details
    201 $290,000.00 $275.40 1 / 1 / 1 1,053 Sq.Ft. 09/06/2016 Details
    1517 $410,000.00 $299.71 2 / 2 / 1 1,368 Sq.Ft. 08/30/2016 Details
  • Property on Map

  • bristol tower skyline on brickell santa maria four seasons avenue the palace on brickell axis millecento brickell on the center emerald the club at brieckell bay plaza on brickell 500 brickell my brickell icon brickell mark on brickell brickell house jade at brickell bay carbonell tequesta point asia Tequesta III Tequesta II Brickell key I Brickell key II Isola St. Louis Courvoisier courts Courts Brickell

Lorem ipsum dolor sit amet, consectetur adipisicing elit, sed do eiusmod tempor incididunt ut labore et dolore magna aliqua. Ut enim ad minim veniam, quis nostrud exercitation ullamco laboris nisi ut aliquip ex ea commodo consequat.